createdAt,value
2018-12-13T00:00:12.004Z,14.75
2018-12-13T00:02:39.454Z,16.20
2018-12-13T00:05:07.012Z,14.70
2018-12-13T00:07:34.456Z,15.43
2018-12-13T00:10:01.985Z,14.23
2018-12-13T00:12:29.427Z,12.98
2018-12-13T00:14:56.868Z,14.85
2018-12-13T00:17:24.318Z,18.27
2018-12-13T00:19:51.756Z,17.20
2018-12-13T00:22:19.221Z,18.20
2018-12-13T00:24:46.671Z,16.80
2018-12-13T00:27:14.532Z,16.90
2018-12-13T00:29:41.989Z,14.80
2018-12-13T00:32:09.447Z,15.90
2018-12-13T00:34:37.318Z,15.63
2018-12-13T00:37:04.806Z,16.65
2018-12-13T00:39:32.251Z,20.10
2018-12-13T00:42:00.264Z,16.97
2018-12-13T00:44:27.707Z,16.50
2018-12-13T00:46:55.215Z,17.57
2018-12-13T00:49:22.651Z,20.72
2018-12-13T00:51:50.100Z,20.77
2018-12-13T00:54:18.262Z,17.65
2018-12-13T00:56:45.722Z,14.70
2018-12-13T00:59:13.171Z,16.12
2018-12-13T01:01:40.790Z,22.70
2018-12-13T01:04:08.290Z,15.50
2018-12-13T01:06:35.726Z,16.45
2018-12-13T01:09:04.220Z,17.73
2018-12-13T01:11:31.670Z,16.73
2018-12-13T01:13:59.149Z,17.92
2018-12-13T01:16:26.590Z,20.40
2018-12-13T01:18:54.043Z,24.18
2018-12-13T01:21:21.476Z,19.92
2018-12-13T01:23:49.862Z,17.55
2018-12-13T01:26:17.302Z,15.38
2018-12-13T01:28:44.969Z,17.42
2018-12-13T01:31:12.409Z,15.95
2018-12-13T01:33:39.850Z,14.20
2018-12-13T01:36:07.293Z,18.20
2018-12-13T01:38:34.803Z,17.75
2018-12-13T01:41:02.823Z,23.52
2018-12-13T01:43:30.279Z,20.20
2018-12-13T01:45:57.722Z,17.67
2018-12-13T01:48:25.225Z,17.42
2018-12-13T01:50:52.688Z,17.20
2018-12-13T01:53:20.128Z,15.35
2018-12-13T01:55:47.571Z,23.07
2018-12-13T01:58:15.014Z,19.48
2018-12-13T02:00:42.457Z,19.00
2018-12-13T02:03:09.896Z,15.53
2018-12-13T02:05:37.355Z,14.68
2018-12-13T02:08:05.494Z,19.50
2018-12-13T02:10:32.945Z,16.25
2018-12-13T02:13:00.390Z,16.90
2018-12-13T02:15:27.839Z,22.25
2018-12-13T02:17:55.345Z,20.95
2018-12-13T02:20:23.049Z,16.20
2018-12-13T02:22:50.556Z,18.42
2018-12-13T02:25:18.007Z,20.48
2018-12-13T02:27:45.443Z,16.23
2018-12-13T02:30:13.459Z,14.87
2018-12-13T02:32:40.971Z,17.90
2018-12-13T02:35:08.459Z,16.42
2018-12-13T02:37:35.902Z,20.52
2018-12-13T02:40:03.563Z,17.07
2018-12-13T02:42:31.110Z,20.77
2018-12-13T02:44:58.639Z,16.55
2018-12-13T02:47:26.101Z,19.87
2018-12-13T02:49:53.529Z,21.40
2018-12-13T02:52:20.983Z,16.15
2018-12-13T02:54:48.433Z,17.02
2018-12-13T02:57:15.888Z,24.90
2018-12-13T02:59:43.367Z,18.65
2018-12-13T03:02:10.851Z,19.82
2018-12-13T03:04:38.302Z,21.05
2018-12-13T03:07:13.114Z,17.12
2018-12-13T03:09:35.195Z,16.93
2018-12-13T03:12:02.715Z,29.07
2018-12-13T03:14:30.171Z,18.95
2018-12-13T03:16:57.622Z,20.85
2018-12-13T03:19:25.075Z,15.38
2018-12-13T03:21:52.548Z,15.75
2018-12-13T03:24:20.004Z,19.00
2018-12-13T03:26:47.450Z,21.20
2018-12-13T03:29:14.995Z,16.80
2018-12-13T03:31:42.446Z,19.23
2018-12-13T03:34:10.015Z,20.23
2018-12-13T03:36:37.476Z,16.77
2018-12-13T03:39:06.701Z,19.55
2018-12-13T03:41:34.249Z,13.53
2018-12-13T03:44:01.761Z,18.07
2018-12-13T03:46:29.316Z,16.90
2018-12-13T03:48:56.756Z,16.35
2018-12-13T03:51:24.235Z,17.23
2018-12-13T03:53:52.144Z,17.05
2018-12-13T03:56:19.584Z,15.72
2018-12-13T03:58:47.035Z,12.82
2018-12-13T04:01:14.475Z,12.25
2018-12-13T04:03:41.922Z,12.15
2018-12-13T04:06:09.364Z,12.30
2018-12-13T04:08:36.810Z,13.95
2018-12-13T04:11:04.253Z,12.82
2018-12-13T04:13:32.543Z,16.05
2018-12-13T04:16:00.057Z,10.80
2018-12-13T04:18:27.650Z,12.33
2018-12-13T04:20:55.094Z,12.28
2018-12-13T04:23:22.546Z,10.63
2018-12-13T04:25:50.008Z,14.63
2018-12-13T04:28:17.445Z,8.93
2018-12-13T04:30:44.883Z,13.03
2018-12-13T04:33:12.341Z,11.10
2018-12-13T04:35:39.771Z,11.35
2018-12-13T04:38:07.218Z,10.25
2018-12-13T04:40:34.660Z,12.70
2018-12-13T04:43:02.202Z,13.83
2018-12-13T04:45:29.639Z,12.85
2018-12-13T04:47:57.088Z,9.25
2018-12-13T04:50:24.524Z,19.42
2018-12-13T04:52:52.025Z,13.28
2018-12-13T04:55:19.529Z,15.83
2018-12-13T04:57:47.008Z,12.15
2018-12-13T05:00:14.512Z,11.25
2018-12-13T05:02:41.959Z,14.13
2018-12-13T05:05:10.400Z,24.40
2018-12-13T05:07:41.873Z,24.82
2018-12-13T05:10:13.887Z,20.40
2018-12-13T05:12:41.358Z,18.00
2018-12-13T05:15:08.785Z,14.18
2018-12-13T05:17:36.230Z,16.57
2018-12-13T05:20:04.706Z,10.58
2018-12-13T05:22:32.238Z,18.37
2018-12-13T05:24:59.695Z,28.30
2018-12-13T05:27:27.143Z,52.45
2018-12-13T05:29:54.595Z,35.83
2018-12-13T05:32:22.035Z,28.07
2018-12-13T05:34:49.490Z,19.45
2018-12-13T05:37:16.934Z,17.98
2018-12-13T05:39:44.398Z,15.93
2018-12-13T05:42:11.843Z,14.13
2018-12-13T05:44:39.562Z,18.57
2018-12-13T05:47:07.002Z,16.42
2018-12-13T05:49:34.458Z,18.10
2018-12-13T05:52:01.926Z,18.07
2018-12-13T05:54:29.393Z,14.73
2018-12-13T05:56:56.852Z,16.55
2018-12-13T05:59:24.290Z,19.70
2018-12-13T06:01:51.745Z,13.22
2018-12-13T06:04:19.190Z,14.10
2018-12-13T06:06:47.929Z,16.23
2018-12-13T06:09:15.528Z,13.72
2018-12-13T06:11:42.971Z,15.30
2018-12-13T06:14:10.414Z,16.93
2018-12-13T06:16:37.874Z,22.82
2018-12-13T06:19:05.405Z,23.25
2018-12-13T06:21:36.809Z,24.50
2018-12-13T06:24:03.054Z,24.23
2018-12-13T06:26:31.243Z,21.27
2018-12-13T06:28:58.695Z,19.65
2018-12-13T06:31:26.155Z,22.37
2018-12-13T06:33:53.610Z,41.58
2018-12-13T06:36:21.093Z,38.98
2018-12-13T06:38:48.536Z,20.85
2018-12-13T06:41:16.035Z,16.65
2018-12-13T06:43:43.478Z,19.55
2018-12-13T06:46:10.994Z,23.05
2018-12-13T06:48:38.891Z,18.12
2018-12-13T06:51:06.366Z,17.73
2018-12-13T06:53:33.807Z,17.55
2018-12-13T06:56:01.267Z,15.90
2018-12-13T06:58:28.740Z,13.90
2018-12-13T07:00:56.182Z,14.87
2018-12-13T07:03:23.631Z,28.67
2018-12-13T07:05:51.087Z,67.25
2018-12-13T07:08:18.539Z,69.97
2018-12-13T07:10:45.992Z,119.67
2018-12-13T07:13:13.437Z,58.38
2018-12-13T07:15:40.882Z,60.45
2018-12-13T07:18:08.343Z,39.15
2018-12-13T07:20:35.777Z,28.85
2018-12-13T07:23:03.239Z,25.08
2018-12-13T07:25:30.681Z,24.65
2018-12-13T07:27:58.159Z,62.85
2018-12-13T07:30:25.599Z,27.65
2018-12-13T07:32:53.053Z,22.82
2018-12-13T07:35:20.519Z,21.50
2018-12-13T07:37:47.971Z,19.23
2018-12-13T07:40:15.427Z,17.20
2018-12-13T07:42:42.882Z,25.20
2018-12-13T07:45:10.326Z,39.18
2018-12-13T07:47:37.806Z,26.97
2018-12-13T07:50:06.775Z,26.75
2018-12-13T07:52:34.246Z,33.42
2018-12-13T07:55:01.707Z,31.07
2018-12-13T07:57:29.204Z,21.68
2018-12-13T07:59:56.655Z,16.30
2018-12-13T08:02:24.108Z,12.93
2018-12-13T08:04:51.537Z,14.70
2018-12-13T08:07:18.987Z,18.73
2018-12-13T08:09:46.448Z,11.53
2018-12-13T08:12:13.890Z,11.00
2018-12-13T08:14:41.351Z,11.83
2018-12-13T08:17:08.798Z,10.50
2018-12-13T08:19:36.255Z,19.82
2018-12-13T08:22:03.764Z,13.88
2018-12-13T08:24:31.218Z,15.00
2018-12-13T08:26:59.371Z,12.18
2018-12-13T08:29:26.810Z,13.30
2018-12-13T08:31:54.271Z,13.50
2018-12-13T08:34:21.714Z,16.87
2018-12-13T08:36:49.179Z,11.60
2018-12-13T08:39:16.615Z,11.33
2018-12-13T08:41:44.063Z,10.30
2018-12-13T08:44:11.501Z,13.70
2018-12-13T08:46:38.970Z,10.90
2018-12-13T08:49:06.407Z,12.33
2018-12-13T08:51:33.850Z,11.18
2018-12-13T08:54:01.287Z,15.45
2018-12-13T08:56:28.747Z,8.90
2018-12-13T08:58:56.183Z,16.10
2018-12-13T09:01:23.638Z,13.62
2018-12-13T09:03:51.131Z,11.63
2018-12-13T09:06:18.592Z,12.37
2018-12-13T09:08:46.027Z,10.18
2018-12-13T09:11:13.542Z,11.80
2018-12-13T09:13:40.998Z,14.40
2018-12-13T09:16:08.539Z,10.23
2018-12-13T09:18:35.979Z,14.28
2018-12-13T09:21:03.486Z,19.12
2018-12-13T09:23:30.936Z,15.75
2018-12-13T09:25:58.385Z,10.70
2018-12-13T09:28:25.838Z,13.05
2018-12-13T09:30:53.274Z,16.50
2018-12-13T09:33:20.757Z,12.10
2018-12-13T09:35:48.179Z,9.75
2018-12-13T09:38:15.638Z,17.98
2018-12-13T09:40:43.080Z,12.55
2018-12-13T09:43:10.541Z,9.68
2018-12-13T09:45:37.966Z,12.78
2018-12-13T09:48:05.422Z,14.93
2018-12-13T09:50:32.858Z,11.22
2018-12-13T09:53:00.310Z,12.07
2018-12-13T09:55:27.755Z,9.35
2018-12-13T09:57:55.191Z,13.62
2018-12-13T10:00:22.647Z,13.85
2018-12-13T10:02:50.090Z,10.50
2018-12-13T10:05:17.547Z,13.62
2018-12-13T10:07:45.122Z,9.73
2018-12-13T10:10:12.636Z,11.28
2018-12-13T10:12:40.079Z,12.75
2018-12-13T10:15:07.649Z,8.93
2018-12-13T10:17:35.086Z,10.08
2018-12-13T10:20:02.659Z,8.70
2018-12-13T10:22:30.099Z,13.05
2018-12-13T10:24:57.546Z,9.70
2018-12-13T10:27:24.978Z,15.32
2018-12-13T10:29:52.439Z,8.23
2018-12-13T10:32:19.879Z,11.18
2018-12-13T10:34:47.344Z,12.05
2018-12-13T10:37:14.779Z,12.47
2018-12-13T10:39:42.219Z,13.88
2018-12-13T10:42:09.728Z,12.13
2018-12-13T10:44:37.171Z,11.05
2018-12-13T10:47:04.688Z,10.50
2018-12-13T10:49:32.132Z,9.50
2018-12-13T10:51:59.591Z,11.85
2018-12-13T10:54:27.035Z,11.97
2018-12-13T10:56:54.490Z,10.15
2018-12-13T10:59:22.014Z,11.25
2018-12-13T11:02:01.890Z,10.65
2018-12-13T11:04:29.395Z,10.93
2018-12-13T11:06:56.855Z,12.63
2018-12-13T11:09:24.356Z,8.45
2018-12-13T11:11:52.167Z,9.63
2018-12-13T11:14:19.611Z,8.50
2018-12-13T11:16:47.065Z,10.03
2018-12-13T11:19:14.500Z,9.93
2018-12-13T11:21:41.956Z,10.18
2018-12-13T11:24:09.390Z,11.30
2018-12-13T11:26:36.903Z,9.35
2018-12-13T11:29:16.221Z,11.53
2018-12-13T11:31:43.759Z,15.00
2018-12-13T11:34:11.343Z,11.05
2018-12-13T11:36:38.777Z,12.10
2018-12-13T11:39:06.309Z,9.35
2018-12-13T11:41:33.749Z,11.97
2018-12-13T11:44:01.199Z,9.93
2018-12-13T11:46:28.642Z,11.03
2018-12-13T11:48:56.103Z,12.50
2018-12-13T11:51:23.547Z,8.08
2018-12-13T11:53:51.471Z,11.00
2018-12-13T11:56:19.023Z,8.13
2018-12-13T11:58:47.171Z,10.83
2018-12-13T12:01:14.613Z,9.93
2018-12-13T12:03:42.064Z,11.93
2018-12-13T12:06:09.493Z,11.27
2018-12-13T12:08:36.951Z,10.13
2018-12-13T12:11:04.390Z,10.90
2018-12-13T12:13:31.874Z,12.63
2018-12-13T12:15:59.315Z,11.17
2018-12-13T12:18:26.766Z,9.10
2018-12-13T12:20:54.208Z,13.03
2018-12-13T12:23:21.667Z,10.67
2018-12-13T12:25:49.108Z,13.80
2018-12-13T12:28:16.544Z,8.63
2018-12-13T12:30:44.001Z,9.60
2018-12-13T12:33:11.434Z,11.03
2018-12-13T12:35:38.888Z,10.70
2018-12-13T12:38:06.334Z,20.10
2018-12-13T12:40:33.864Z,10.17
2018-12-13T12:43:01.294Z,12.70
2018-12-13T12:45:28.733Z,8.97
2018-12-13T12:47:56.167Z,7.80
2018-12-13T12:50:23.628Z,10.00
2018-12-13T12:52:51.074Z,10.03
2018-12-13T12:55:18.539Z,7.70
2018-12-13T12:57:45.983Z,9.30
2018-12-13T13:00:13.531Z,15.63
2018-12-13T13:02:41.247Z,7.97
2018-12-13T13:05:08.701Z,8.90
2018-12-13T13:07:36.150Z,10.23
2018-12-13T13:10:04.314Z,10.27
2018-12-13T13:12:31.868Z,8.43
2018-12-13T13:14:59.312Z,11.47
2018-12-13T13:17:26.758Z,10.50
2018-12-13T13:19:54.189Z,8.40
2018-12-13T13:22:21.646Z,11.40
2018-12-13T13:24:49.086Z,11.27
2018-12-13T13:27:16.536Z,9.13
2018-12-13T13:29:43.985Z,10.90
2018-12-13T13:32:11.442Z,7.93
2018-12-13T13:34:38.879Z,10.43
2018-12-13T13:37:06.359Z,8.90
2018-12-13T13:39:33.797Z,8.27
2018-12-13T13:42:01.231Z,8.37
2018-12-13T13:44:30.669Z,10.40
2018-12-13T13:46:58.094Z,9.97
2018-12-13T13:49:25.556Z,8.27
2018-12-13T13:51:52.985Z,10.30
2018-12-13T13:54:20.456Z,10.87
2018-12-13T13:56:47.891Z,12.13
2018-12-13T13:59:15.346Z,9.40
2018-12-13T14:01:42.793Z,13.60
2018-12-13T14:04:10.240Z,12.57
2018-12-13T14:06:37.688Z,9.00
2018-12-13T14:09:06.380Z,10.07
2018-12-13T14:11:33.854Z,8.63
2018-12-13T14:14:01.292Z,8.30
2018-12-13T14:16:28.747Z,8.43
2018-12-13T14:18:56.187Z,9.00
2018-12-13T14:21:23.647Z,11.23
2018-12-13T14:23:51.094Z,12.90
2018-12-13T14:26:18.546Z,8.83
2018-12-13T14:28:45.987Z,12.90
2018-12-13T14:31:13.436Z,8.13
2018-12-13T14:33:41.186Z,10.30
2018-12-13T14:36:08.638Z,8.10
2018-12-13T14:38:36.084Z,8.70
2018-12-13T14:41:03.532Z,14.43
2018-12-13T14:43:30.969Z,10.57
2018-12-13T14:45:58.868Z,7.92
2018-12-13T14:48:26.311Z,8.40
2018-12-13T14:50:53.752Z,15.72
2018-12-13T14:53:21.207Z,11.80
2018-12-13T14:55:48.657Z,7.65
2018-12-13T14:58:16.134Z,13.78
2018-12-13T15:00:43.571Z,11.40
2018-12-13T15:03:11.015Z,9.25
2018-12-13T15:05:38.454Z,12.45
2018-12-13T15:08:05.902Z,10.48
2018-12-13T15:10:33.346Z,16.65
2018-12-13T15:13:00.783Z,9.05
2018-12-13T15:15:28.221Z,9.63
2018-12-13T15:17:55.658Z,7.20
2018-12-13T15:20:23.101Z,11.12
2018-12-13T15:22:50.555Z,8.63
2018-12-13T15:25:18.163Z,8.88
2018-12-13T15:27:45.703Z,7.08
2018-12-13T15:30:13.134Z,10.50
2018-12-13T15:32:40.788Z,12.95
2018-12-13T15:35:08.285Z,10.82
2018-12-13T15:37:35.802Z,10.28
2018-12-13T15:40:03.682Z,10.75
2018-12-13T15:42:31.146Z,9.85
2018-12-13T15:44:58.591Z,7.92
2018-12-13T15:47:26.022Z,15.80
2018-12-13T15:52:29.330Z,11.30
2018-12-13T15:54:57.235Z,13.30
2018-12-13T15:57:24.670Z,11.10
2018-12-13T15:59:52.115Z,9.40
2018-12-13T16:02:19.548Z,12.28
2018-12-13T16:04:47.065Z,10.25
2018-12-13T16:07:14.491Z,15.48
2018-12-13T16:09:42.020Z,9.90
2018-12-13T16:12:09.610Z,18.15
2018-12-13T16:14:37.876Z,9.30
2018-12-13T16:17:05.535Z,10.82
2018-12-13T16:19:33.451Z,14.85
2018-12-13T16:22:00.909Z,8.00
2018-12-13T16:24:28.351Z,16.05
2018-12-13T16:26:55.856Z,10.78
2018-12-13T16:29:23.320Z,9.38
2018-12-13T16:31:50.848Z,10.95
2018-12-13T16:34:19.175Z,7.55
2018-12-13T16:36:49.194Z,7.80
2018-12-13T16:39:17.626Z,16.12
2018-12-13T16:41:45.133Z,6.28
2018-12-13T16:44:12.566Z,11.97
2018-12-13T16:46:40.080Z,8.65
2018-12-13T16:49:07.508Z,6.37
2018-12-13T16:51:34.961Z,8.45
2018-12-13T16:54:02.395Z,13.22
2018-12-13T16:56:29.830Z,9.65
2018-12-13T16:58:57.262Z,8.35
2018-12-13T17:01:24.716Z,10.00
2018-12-13T17:03:52.151Z,7.50
2018-12-13T17:06:19.591Z,8.15
2018-12-13T17:08:47.025Z,7.90
2018-12-13T17:11:14.468Z,6.75
2018-12-13T17:13:41.901Z,11.83
2018-12-13T17:16:10.585Z,7.70
2018-12-13T17:18:38.003Z,6.95
2018-12-13T17:21:05.466Z,12.53
2018-12-13T17:23:32.910Z,13.75
2018-12-13T17:26:00.505Z,7.85
2018-12-13T17:28:27.954Z,6.58
2018-12-13T17:30:55.557Z,9.35
2018-12-13T17:33:22.998Z,9.08
2018-12-13T17:35:50.431Z,8.65
2018-12-13T17:38:17.914Z,10.00
2018-12-13T17:40:45.341Z,7.47
2018-12-13T17:43:12.792Z,10.40
2018-12-13T17:45:40.226Z,10.48
2018-12-13T17:48:07.700Z,6.25
2018-12-13T17:50:35.142Z,11.40
2018-12-13T17:53:02.650Z,10.32
2018-12-13T17:55:30.088Z,8.65
2018-12-13T17:57:57.539Z,9.38
2018-12-13T18:00:24.971Z,13.65
2018-12-13T18:02:52.453Z,8.40
2018-12-13T18:05:19.880Z,12.58
2018-12-13T18:07:47.344Z,7.47
2018-12-13T18:10:14.785Z,10.45
2018-12-13T18:12:42.235Z,11.78
2018-12-13T18:15:09.806Z,13.50
2018-12-13T18:17:37.247Z,11.80
2018-12-13T18:20:05.341Z,12.73
2018-12-13T18:22:32.762Z,9.58
2018-12-13T18:25:00.211Z,14.00
2018-12-13T18:27:27.653Z,17.73
2018-12-13T18:29:55.102Z,10.13
2018-12-13T18:32:22.547Z,10.58
2018-12-13T18:34:50.002Z,8.80
2018-12-13T18:37:17.452Z,15.90
2018-12-13T18:39:44.973Z,14.28
2018-12-13T18:42:12.416Z,16.65
2018-12-13T18:44:39.875Z,11.83
2018-12-13T18:47:07.306Z,13.03
2018-12-13T18:49:34.838Z,11.10
2018-12-13T18:52:02.269Z,17.15
2018-12-13T18:54:30.275Z,17.77
2018-12-13T18:56:57.755Z,10.48
2018-12-13T18:59:25.206Z,13.93
2018-12-13T19:01:52.743Z,14.93
2018-12-13T19:04:20.195Z,13.48
2018-12-13T19:06:47.689Z,15.03
2018-12-13T19:09:17.437Z,13.40
2018-12-13T19:11:44.959Z,12.50
2018-12-13T19:14:12.422Z,16.48
2018-12-13T19:16:39.866Z,15.23
2018-12-13T19:19:07.427Z,13.65
2018-12-13T19:21:34.875Z,15.93
2018-12-13T19:24:02.322Z,11.38
2018-12-13T19:26:30.715Z,12.10
2018-12-13T19:28:58.173Z,15.08
2018-12-13T19:31:25.605Z,18.27
2018-12-13T19:33:53.059Z,21.45
2018-12-13T19:36:20.507Z,33.38
2018-12-13T19:38:47.962Z,27.40
2018-12-13T19:41:18.205Z,20.45
2018-12-13T19:43:45.945Z,15.95
2018-12-13T19:46:13.400Z,16.23
2018-12-13T19:48:41.239Z,22.20
2018-12-13T19:51:09.755Z,33.80
2018-12-13T19:53:39.049Z,33.05
2018-12-13T19:56:07.136Z,24.10
2018-12-13T19:58:34.614Z,17.60
2018-12-13T20:01:02.128Z,16.70
2018-12-13T20:03:29.658Z,14.05
2018-12-13T20:05:57.435Z,21.37
2018-12-13T20:08:24.895Z,15.80
2018-12-13T20:10:54.746Z,25.55
2018-12-13T20:13:27.238Z,17.20
2018-12-13T20:15:54.782Z,23.52
2018-12-13T20:18:22.232Z,17.82
2018-12-13T20:20:49.657Z,17.95
2018-12-13T20:23:20.443Z,36.50
2018-12-13T20:25:48.150Z,20.00
2018-12-13T20:28:17.750Z,21.45
2018-12-13T20:30:45.416Z,16.62
2018-12-13T20:33:15.023Z,13.13
2018-12-13T20:35:43.626Z,20.00
2018-12-13T20:38:11.103Z,17.02
2018-12-13T20:40:38.546Z,18.90
2018-12-13T20:43:06.370Z,15.85
2018-12-13T20:45:33.810Z,13.18
2018-12-13T20:48:01.251Z,16.93
2018-12-13T20:50:28.695Z,16.77
2018-12-13T20:52:56.134Z,20.00
2018-12-13T20:55:23.607Z,16.62
2018-12-13T20:57:51.039Z,22.75
2018-12-13T21:00:18.486Z,16.42
2018-12-13T21:02:45.947Z,14.33
2018-12-13T21:05:14.083Z,18.05
2018-12-13T21:07:41.535Z,18.25
2018-12-13T21:10:09.089Z,17.77
2018-12-13T21:12:36.554Z,19.17
2018-12-13T21:15:04.675Z,19.80
2018-12-13T21:17:32.176Z,21.82
2018-12-13T21:19:59.626Z,20.50
2018-12-13T21:22:27.086Z,23.25
2018-12-13T21:24:55.366Z,19.20
2018-12-13T21:27:22.820Z,20.48
2018-12-13T21:29:50.491Z,22.37
2018-12-13T21:32:17.967Z,17.48
2018-12-13T21:34:45.407Z,21.15
2018-12-13T21:37:12.859Z,20.30
2018-12-13T21:39:41.015Z,16.70
2018-12-13T21:42:08.532Z,18.42
2018-12-13T21:44:35.975Z,22.13
2018-12-13T21:47:03.434Z,15.32
2018-12-13T21:49:30.880Z,23.95
2018-12-13T21:51:58.478Z,22.02
2018-12-13T21:54:26.641Z,20.32
2018-12-13T21:56:54.291Z,21.07
2018-12-13T21:59:21.755Z,21.48
2018-12-13T22:01:49.206Z,21.25
2018-12-13T22:04:17.393Z,22.02
2018-12-13T22:06:44.825Z,16.35
2018-12-13T22:09:12.278Z,18.90
2018-12-13T22:11:39.725Z,16.67
2018-12-13T22:14:07.338Z,25.77
2018-12-13T22:16:34.850Z,17.20
2018-12-13T22:19:02.365Z,16.15
2018-12-13T22:21:29.875Z,19.70
2018-12-13T22:23:57.334Z,23.20
2018-12-13T22:26:24.865Z,19.65
2018-12-13T22:28:52.316Z,21.65
2018-12-13T22:31:19.763Z,22.80
2018-12-13T22:33:47.223Z,24.30
2018-12-13T22:36:14.683Z,21.77
2018-12-13T22:38:42.143Z,21.23
2018-12-13T22:41:10.395Z,25.23
2018-12-13T22:43:38.083Z,20.60
2018-12-13T22:46:05.544Z,25.57
2018-12-13T22:48:33.048Z,22.55
2018-12-13T22:51:01.107Z,27.80
2018-12-13T22:53:28.547Z,22.32
2018-12-13T22:55:56.003Z,27.22
2018-12-13T22:58:23.460Z,26.95
2018-12-13T23:00:51.046Z,24.45
2018-12-13T23:03:18.556Z,28.15
2018-12-13T23:05:46.008Z,21.73
2018-12-13T23:08:13.462Z,25.15
2018-12-13T23:10:40.890Z,22.00
2018-12-13T23:13:08.343Z,19.60
2018-12-13T23:15:35.781Z,23.38
2018-12-13T23:18:03.294Z,24.60
2018-12-13T23:20:30.747Z,20.92
2018-12-13T23:22:58.189Z,21.40
2018-12-13T23:25:25.644Z,22.77
2018-12-13T23:27:53.087Z,23.45
2018-12-13T23:30:20.524Z,21.57
2018-12-13T23:32:47.985Z,23.42
2018-12-13T23:35:15.432Z,22.70
2018-12-13T23:37:42.955Z,23.83
2018-12-13T23:40:10.399Z,21.95
2018-12-13T23:42:37.884Z,29.45
2018-12-13T23:45:05.450Z,20.32
2018-12-13T23:47:32.887Z,21.20
2018-12-13T23:50:00.859Z,19.12
2018-12-13T23:52:28.305Z,24.77
2018-12-13T23:54:55.801Z,19.80
2018-12-13T23:57:23.237Z,23.18
2018-12-13T23:59:51.344Z,22.87
